Time;durP1;ratioP1;P1;durP2;ratioP2;P2;SDS_P1;SDS_P2;PMS_P1;PMS_P2;Temp;Humidity;BMP_temperature;BMP_pressure;BME280_temperature;BME280_humidity;BME280_pressure;Samples;Min_cycle;Max_cycle;Signal;HPM_P1;HPM_P2
2024/01/31 00:00:31;;;;;;;5.05;1.00;;;5.70;99.90;;;;;;4998327;28;20034;-63
2024/01/31 00:02:56;;;;;;;4.60;1.17;;;5.80;99.90;;;;;;4992372;28;20118;-64
2024/01/31 00:05:22;;;;;;;5.45;1.45;;;5.80;99.90;;;;;;5000797;28;20114;-63
2024/01/31 00:07:48;;;;;;;5.07;1.20;;;5.80;99.90;;;;;;4995872;28;20035;-63
2024/01/31 00:10:14;;;;;;;6.65;1.10;;;5.80;99.90;;;;;;4997830;28;20117;-63
2024/01/31 00:12:40;;;;;;;8.48;1.15;;;5.80;99.90;;;;;;4995296;28;20130;-63
2024/01/31 00:15:06;;;;;;;85.10;70.35;;;5.80;99.90;;;;;;4999506;28;20084;-63
2024/01/31 00:17:31;;;;;;;12.48;7.63;;;5.80;99.90;;;;;;4996328;28;20056;-63
2024/01/31 00:19:57;;;;;;;15.18;8.68;;;5.90;99.90;;;;;;5000240;28;20105;-63
2024/01/31 00:22:23;;;;;;;12.93;9.40;;;5.80;99.90;;;;;;4993319;28;20038;-63
2024/01/31 00:24:49;;;;;;;22.40;15.55;;;5.90;99.90;;;;;;4997909;28;20034;-63
2024/01/31 00:27:14;;;;;;;17.88;12.02;;;5.80;99.90;;;;;;5002084;28;20037;-63
2024/01/31 00:29:40;;;;;;;59.13;48.33;;;5.90;99.90;;;;;;4994899;28;20118;-63
2024/01/31 00:32:06;;;;;;;28.95;23.98;;;5.80;99.90;;;;;;4997009;28;20042;-63
2024/01/31 00:34:32;;;;;;;15.93;10.32;;;5.80;99.90;;;;;;4994182;28;20061;-63
2024/01/31 00:36:58;;;;;;;33.85;26.20;;;5.80;99.90;;;;;;4988360;28;20121;-63
2024/01/31 00:39:28;;;;;;;11.45;6.55;;;5.80;99.90;;;;;;4995597;28;20141;-63
2024/01/31 00:41:54;;;;;;;11.50;4.68;;;5.90;99.90;;;;;;4999434;28;20046;-63
2024/01/31 00:44:20;;;;;;;13.68;7.28;;;5.90;99.90;;;;;;5003404;28;20034;-63
2024/01/31 00:46:48;;;;;;;23.25;20.48;;;5.80;99.90;;;;;;5001956;28;20515;-63
2024/01/31 00:49:14;;;;;;;9.57;5.88;;;5.80;99.90;;;;;;4992853;28;20042;-63
2024/01/31 00:51:44;;;;;;;22.58;18.40;;;5.80;99.90;;;;;;5001841;28;20066;-63
2024/01/31 00:54:13;;;;;;;8.73;1.90;;;5.80;99.90;;;;;;5005057;28;20457;-63
2024/01/31 00:56:39;;;;;;;10.27;6.93;;;5.80;99.90;;;;;;4997217;28;20041;-63
2024/01/31 00:59:04;;;;;;;9.43;4.90;;;5.80;99.90;;;;;;5004361;28;20030;-63
2024/01/31 01:01:30;;;;;;;8.60;1.50;;;5.80;99.90;;;;;;5003269;28;20491;-64
2024/01/31 01:03:56;;;;;;;6.28;1.27;;;5.80;99.90;;;;;;5001964;28;20035;-63
2024/01/31 01:06:21;;;;;;;4.53;1.67;;;5.70;99.90;;;;;;4996322;28;20049;-63
2024/01/31 01:08:47;;;;;;;4.15;1.25;;;5.70;99.90;;;;;;5001758;28;20046;-63
2024/01/31 01:11:13;;;;;;;5.85;1.38;;;5.70;99.90;;;;;;4996875;28;20245;-63
2024/01/31 01:13:38;;;;;;;5.60;1.17;;;5.70;99.90;;;;;;4998625;28;20118;-64
2024/01/31 01:16:04;;;;;;;7.07;1.20;;;5.60;99.90;;;;;;4998446;28;20085;-64
2024/01/31 01:18:30;;;;;;;4.28;1.20;;;5.60;99.90;;;;;;4996353;28;20038;-63
2024/01/31 01:20:55;;;;;;;9.27;1.90;;;5.70;99.90;;;;;;5000098;28;20784;-63
2024/01/31 01:23:21;;;;;;;4.22;1.30;;;5.60;99.90;;;;;;4984199;28;20038;-63
2024/01/31 01:25:47;;;;;;;8.52;1.25;;;5.70;99.90;;;;;;4990118;28;20046;-63
2024/01/31 01:28:13;;;;;;;4.72;1.40;;;5.70;99.90;;;;;;4995625;28;20529;-63
2024/01/31 01:30:38;;;;;;;6.85;1.40;;;5.60;99.90;;;;;;5000913;28;20035;-63
2024/01/31 01:33:04;;;;;;;5.68;1.45;;;5.60;99.90;;;;;;4999414;28;20080;-63
2024/01/31 01:35:30;;;;;;;7.80;1.45;;;5.60;99.90;;;;;;4991581;28;20044;-63
2024/01/31 01:37:55;;;;;;;2.92;1.52;;;5.60;99.90;;;;;;4990436;28;20042;-63
2024/01/31 01:40:21;;;;;;;9.07;2.10;;;5.60;99.90;;;;;;5000901;28;20034;-63
2024/01/31 01:42:47;;;;;;;3.45;1.60;;;5.70;99.90;;;;;;4990116;28;20041;-63
2024/01/31 01:45:12;;;;;;;5.40;1.67;;;5.70;99.90;;;;;;4996364;28;20084;-63
2024/01/31 01:47:42;;;;;;;8.45;1.90;;;5.70;99.90;;;;;;5000000;28;20522;-63
2024/01/31 01:50:09;;;;;;;5.82;1.45;;;5.70;99.90;;;;;;4997880;28;20052;-63
2024/01/31 01:52:34;;;;;;;4.20;1.60;;;5.70;99.90;;;;;;5001013;28;20506;-63
2024/01/31 01:55:04;;;;;;;3.80;1.38;;;5.70;99.90;;;;;;4996741;28;20056;-63
2024/01/31 01:57:33;;;;;;;3.75;1.40;;;5.70;99.90;;;;;;4992341;28;20395;-63
2024/01/31 02:00:00;;;;;;;4.95;1.30;;;5.70;99.90;;;;;;4997995;28;20039;-63
2024/01/31 02:02:27;;;;;;;5.22;1.50;;;5.70;99.90;;;;;;4997372;28;20052;-63
2024/01/31 02:04:53;;;;;;;5.63;1.40;;;5.70;99.90;;;;;;4995352;28;20521;-64
2024/01/31 02:07:24;;;;;;;6.25;1.20;;;5.70;99.90;;;;;;4994737;28;20136;-63
2024/01/31 02:09:54;;;;;;;5.47;1.35;;;5.70;99.90;;;;;;4994321;28;20038;-64
2024/01/31 02:12:20;;;;;;;6.47;1.23;;;5.70;99.90;;;;;;4995308;28;20121;-63
2024/01/31 02:14:47;;;;;;;5.75;1.60;;;5.70;99.90;;;;;;4991424;28;20133;-63
2024/01/31 02:17:13;;;;;;;5.55;1.33;;;5.70;99.90;;;;;;4998928;28;20053;-63
2024/01/31 02:19:39;;;;;;;2.40;0.88;;;5.70;99.90;;;;;;4994388;28;20035;-63
2024/01/31 02:22:06;;;;;;;5.22;1.58;;;5.70;99.90;;;;;;4998542;28;20043;-63
2024/01/31 02:24:32;;;;;;;4.10;1.23;;;5.70;99.90;;;;;;4993971;28;20450;-63
2024/01/31 02:26:57;;;;;;;6.65;1.50;;;5.60;99.90;;;;;;4995757;28;20114;-64
2024/01/31 02:29:23;;;;;;;4.90;1.20;;;5.60;99.90;;;;;;4995790;28;20064;-63
2024/01/31 02:31:49;;;;;;;7.18;1.55;;;5.60;99.90;;;;;;4998614;28;20049;-64
2024/01/31 02:34:14;;;;;;;3.78;1.20;;;5.60;99.90;;;;;;4998554;28;20040;-63
2024/01/31 02:36:40;;;;;;;2.50;1.23;;;5.60;99.90;;;;;;4997696;28;20042;-63
2024/01/31 02:39:06;;;;;;;3.50;1.60;;;5.60;99.90;;;;;;4993160;28;20093;-63
2024/01/31 02:41:31;;;;;;;5.90;1.35;;;5.60;99.90;;;;;;4993821;28;20042;-63
2024/01/31 02:43:57;;;;;;;4.00;0.98;;;5.60;99.90;;;;;;4988091;28;20034;-63
2024/01/31 02:46:22;;;;;;;4.65;1.40;;;5.60;99.90;;;;;;4972295;28;20038;-63
2024/01/31 02:48:48;;;;;;;5.25;1.40;;;5.60;99.90;;;;;;4998726;28;20046;-64
2024/01/31 02:51:14;;;;;;;3.88;1.17;;;5.60;99.90;;;;;;4989707;28;20050;-63
2024/01/31 02:53:40;;;;;;;3.30;1.00;;;5.60;99.90;;;;;;4990042;28;20034;-63
2024/01/31 02:56:08;;;;;;;5.30;1.40;;;5.60;99.90;;;;;;4989905;28;20041;-63
2024/01/31 02:58:35;;;;;;;4.28;1.20;;;5.60;99.90;;;;;;4990800;28;20050;-63
2024/01/31 03:01:04;;;;;;;5.00;1.05;;;5.60;99.90;;;;;;4988686;28;20034;-63
2024/01/31 03:03:30;;;;;;;7.38;1.38;;;5.60;99.90;;;;;;4993895;28;20130;-63
2024/01/31 03:05:55;;;;;;;5.30;1.13;;;5.60;99.90;;;;;;4991532;28;20113;-63
2024/01/31 03:08:21;;;;;;;4.70;1.35;;;5.60;99.90;;;;;;4998447;28;20038;-63
2024/01/31 03:10:47;;;;;;;4.68;1.13;;;5.60;99.90;;;;;;4994081;28;20113;-63
2024/01/31 03:13:14;;;;;;;4.30;0.93;;;5.60;99.90;;;;;;4993843;28;20035;-63
2024/01/31 03:15:39;;;;;;;9.27;1.77;;;5.60;99.90;;;;;;4994620;28;20092;-63
2024/01/31 03:18:05;;;;;;;3.80;0.98;;;5.60;99.90;;;;;;4990115;28;20268;-64
2024/01/31 03:20:33;;;;;;;4.00;0.93;;;5.60;99.90;;;;;;4958763;28;20051;-63
2024/01/31 03:22:58;;;;;;;3.75;1.20;;;5.60;99.90;;;;;;4964546;28;20047;-63
2024/01/31 03:25:24;;;;;;;4.05;1.13;;;5.60;99.90;;;;;;4953695;28;20989;-63
2024/01/31 03:27:49;;;;;;;5.90;1.23;;;5.60;99.90;;;;;;4955063;28;20046;-63
2024/01/31 03:30:15;;;;;;;5.47;1.52;;;5.70;99.90;;;;;;4979447;28;20057;-63
2024/01/31 03:32:41;;;;;;;5.10;1.17;;;5.60;99.90;;;;;;4989301;28;20506;-63
2024/01/31 03:35:07;;;;;;;3.15;1.10;;;5.60;99.90;;;;;;4997207;28;20031;-63
2024/01/31 03:37:32;;;;;;;7.57;1.35;;;5.60;99.90;;;;;;4987221;28;20070;-63
2024/01/31 03:39:58;;;;;;;4.53;0.98;;;5.60;99.90;;;;;;4989516;28;20038;-63
2024/01/31 03:42:24;;;;;;;5.43;1.50;;;5.60;99.90;;;;;;4985665;28;20136;-63
2024/01/31 03:44:49;;;;;;;6.18;1.35;;;5.60;99.90;;;;;;4962651;28;20121;-63
2024/01/31 03:47:15;;;;;;;3.72;1.30;;;5.50;99.90;;;;;;4981537;28;20100;-63
2024/01/31 03:49:41;;;;;;;2.47;1.50;;;5.50;99.90;;;;;;4994765;28;20045;-63
2024/01/31 03:52:07;;;;;;;5.50;1.27;;;5.60;99.90;;;;;;4987999;28;20046;-63
2024/01/31 03:54:32;;;;;;;6.30;1.25;;;5.50;99.90;;;;;;4995294;28;20478;-63
2024/01/31 03:56:58;;;;;;;5.15;1.23;;;5.50;99.90;;;;;;4994616;28;20043;-63
2024/01/31 03:59:24;;;;;;;5.88;1.42;;;5.60;99.90;;;;;;4992143;28;20042;-63
2024/01/31 04:01:50;;;;;;;4.60;1.58;;;5.50;99.90;;;;;;4993104;28;20035;-63
2024/01/31 04:04:16;;;;;;;5.13;1.17;;;5.50;99.90;;;;;;4988831;28;20091;-63
2024/01/31 04:06:42;;;;;;;4.25;1.10;;;5.60;99.90;;;;;;4992595;28;20038;-63
2024/01/31 04:09:07;;;;;;;4.00;1.23;;;5.60;99.90;;;;;;4993145;28;20070;-63
2024/01/31 04:11:34;;;;;;;8.80;1.50;;;5.50;99.90;;;;;;4995470;28;20518;-63
2024/01/31 04:14:03;;;;;;;6.40;1.48;;;5.50;99.90;;;;;;4997329;28;20479;-63
2024/01/31 04:16:29;;;;;;;5.88;1.42;;;5.50;99.90;;;;;;4996106;28;20041;-63
2024/01/31 04:18:54;;;;;;;4.95;1.08;;;5.50;99.90;;;;;;5004207;28;20364;-63
2024/01/31 04:21:20;;;;;;;4.38;1.20;;;5.50;99.90;;;;;;4998336;28;20040;-63
2024/01/31 04:23:47;;;;;;;5.88;1.13;;;5.50;99.90;;;;;;5002308;28;20030;-63
2024/01/31 04:26:13;;;;;;;3.03;0.75;;;5.50;99.90;;;;;;4998113;28;20042;-63
2024/01/31 04:28:38;;;;;;;4.10;1.15;;;5.60;99.90;;;;;;4998418;28;20044;-63
2024/01/31 04:31:04;;;;;;;1.75;0.90;;;5.50;99.90;;;;;;5001116;28;20046;-63
2024/01/31 04:33:30;;;;;;;6.18;1.00;;;5.60;99.90;;;;;;5002622;28;20100;-63
2024/01/31 04:35:55;;;;;;;2.55;0.93;;;5.40;99.90;;;;;;4995851;28;20088;-63
2024/01/31 04:38:22;;;;;;;3.53;0.73;;;5.50;99.90;;;;;;4998479;28;20038;-63
2024/01/31 04:40:47;;;;;;;4.72;0.60;;;5.50;99.90;;;;;;4973938;28;20596;-63
2024/01/31 04:43:18;;;;;;;4.35;1.20;;;5.50;99.90;;;;;;4992534;28;20037;-63
2024/01/31 04:45:44;;;;;;;2.33;0.70;;;5.50;99.90;;;;;;4993860;28;20080;-63
2024/01/31 04:48:10;;;;;;;3.50;0.95;;;5.50;99.90;;;;;;5001731;28;20042;-63
2024/01/31 04:50:35;;;;;;;1.55;0.75;;;5.50;99.90;;;;;;4999009;28;20081;-63
2024/01/31 04:53:01;;;;;;;2.72;0.80;;;5.40;99.90;;;;;;4997662;28;20038;-63
2024/01/31 04:55:27;;;;;;;4.28;0.82;;;5.50;99.90;;;;;;4996100;28;20085;-63
2024/01/31 04:57:52;;;;;;;2.28;0.80;;;5.50;99.90;;;;;;4996956;28;20038;-63
2024/01/31 05:00:20;;;;;;;3.65;0.80;;;5.40;99.90;;;;;;4996740;28;20448;-63
2024/01/31 05:02:46;;;;;;;3.15;0.90;;;5.50;99.90;;;;;;4998474;28;20038;-63
2024/01/31 05:05:11;;;;;;;2.05;0.73;;;5.50;99.90;;;;;;5002188;28;20046;-63
2024/01/31 05:07:37;;;;;;;2.40;0.82;;;5.50;99.90;;;;;;4999174;28;20038;-63
2024/01/31 05:10:03;;;;;;;3.20;1.02;;;5.50;99.90;;;;;;4996710;28;20440;-63
2024/01/31 05:12:29;;;;;;;3.83;1.00;;;5.50;99.90;;;;;;5002244;28;20046;-63
2024/01/31 05:14:54;;;;;;;3.17;1.00;;;5.50;99.90;;;;;;4993668;28;20042;-63
2024/01/31 05:17:20;;;;;;;3.55;1.08;;;5.50;99.90;;;;;;4996733;28;20045;-63
2024/01/31 05:19:45;;;;;;;2.45;0.77;;;5.50;99.90;;;;;;4987730;28;20395;-63
2024/01/31 05:22:11;;;;;;;2.67;1.10;;;5.50;99.90;;;;;;4999405;28;20030;-63
2024/01/31 05:24:37;;;;;;;3.28;1.10;;;5.50;99.90;;;;;;4989073;28;20163;-63
2024/01/31 05:27:05;;;;;;;6.72;1.10;;;5.50;99.90;;;;;;4994432;28;20049;-63
2024/01/31 05:29:31;;;;;;;2.85;0.98;;;5.50;99.90;;;;;;4995831;28;20407;-63
2024/01/31 05:31:56;;;;;;;2.72;1.00;;;5.40;99.90;;;;;;5001446;28;20042;-63
2024/01/31 05:34:26;;;;;;;3.30;1.00;;;5.40;99.90;;;;;;5000287;28;20034;-63
2024/01/31 05:36:52;;;;;;;8.23;1.20;;;5.40;99.90;;;;;;4996030;28;20109;-63
2024/01/31 05:39:17;;;;;;;5.70;1.30;;;5.40;99.90;;;;;;4998547;28;20118;-63
2024/01/31 05:41:44;;;;;;;5.10;1.38;;;5.40;99.90;;;;;;4997020;28;20278;-63
2024/01/31 05:44:10;;;;;;;7.53;1.38;;;5.40;99.90;;;;;;4995036;28;20518;-63
2024/01/31 05:46:36;;;;;;;2.17;1.02;;;5.40;99.90;;;;;;5003037;28;20044;-63
2024/01/31 05:49:02;;;;;;;5.20;1.30;;;5.30;99.90;;;;;;5004051;28;20469;-63
2024/01/31 05:51:31;;;;;;;3.88;1.10;;;5.40;99.90;;;;;;5003979;28;20084;-63
2024/01/31 05:53:56;;;;;;;5.45;1.75;;;5.30;99.90;;;;;;5002967;28;20514;-63
2024/01/31 05:56:22;;;;;;;7.97;1.65;;;5.40;99.90;;;;;;4994645;28;20030;-63
2024/01/31 05:58:48;;;;;;;3.85;1.17;;;5.40;99.90;;;;;;4991415;28;20390;-63
2024/01/31 06:01:15;;;;;;;9.77;1.55;;;5.40;99.90;;;;;;5003566;28;20391;-63
2024/01/31 06:03:40;;;;;;;5.32;1.70;;;5.40;99.90;;;;;;4998127;28;20486;-63
2024/01/31 06:06:06;;;;;;;6.60;1.42;;;5.40;99.90;;;;;;4996420;28;20041;-63
2024/01/31 06:08:34;;;;;;;4.72;1.42;;;5.40;99.90;;;;;;4997082;28;20053;-63
2024/01/31 06:11:06;;;;;;;6.82;1.50;;;5.40;99.90;;;;;;5003317;28;20525;-63
2024/01/31 06:13:32;;;;;;;6.00;1.58;;;5.40;99.90;;;;;;4996790;28;20046;-63
2024/01/31 06:15:58;;;;;;;2.95;1.48;;;5.40;99.90;;;;;;5001228;28;20073;-63
2024/01/31 06:18:24;;;;;;;8.80;1.85;;;5.40;99.90;;;;;;5003576;28;20426;-63
2024/01/31 06:20:50;;;;;;;5.13;1.42;;;5.40;99.90;;;;;;5001468;28;20061;-63
2024/01/31 06:23:16;;;;;;;3.63;1.48;;;5.40;99.90;;;;;;4998660;28;20030;-64
2024/01/31 06:25:41;;;;;;;4.60;1.50;;;5.40;99.90;;;;;;4995862;28;20038;-63
2024/01/31 06:28:07;;;;;;;6.10;1.70;;;5.40;99.90;;;;;;5001551;28;20438;-63
2024/01/31 06:30:44;;;;;;;5.80;1.90;;;5.40;99.90;;;;;;4994580;28;20038;-63
2024/01/31 06:33:14;;;;;;;6.70;1.80;;;5.40;99.90;;;;;;4999732;28;20042;-63
2024/01/31 06:35:47;;;;;;;4.90;1.95;;;5.40;99.90;;;;;;4993524;28;20050;-63
2024/01/31 06:38:13;;;;;;;5.65;1.70;;;5.40;99.90;;;;;;4999316;28;20037;-63
2024/01/31 06:40:39;;;;;;;4.10;1.63;;;5.30;99.90;;;;;;4990345;28;20046;-63
2024/01/31 06:43:04;;;;;;;4.80;1.80;;;5.40;99.90;;;;;;4996985;28;20045;-63
2024/01/31 06:45:30;;;;;;;4.72;1.63;;;5.40;99.90;;;;;;4983949;28;20113;-63
2024/01/31 06:47:56;;;;;;;3.72;1.42;;;5.40;99.90;;;;;;4992292;28;20097;-63
2024/01/31 06:50:21;;;;;;;3.25;1.85;;;5.40;99.90;;;;;;4996334;28;20398;-63
2024/01/31 06:52:47;;;;;;;4.32;2.00;;;5.40;99.90;;;;;;4982437;28;20070;-63
2024/01/31 06:55:13;;;;;;;3.60;1.80;;;5.40;99.90;;;;;;4988941;28;20056;-63
2024/01/31 06:57:40;;;;;;;6.68;2.20;;;5.40;99.90;;;;;;4992795;28;20035;-63
2024/01/31 07:00:07;;;;;;;4.45;1.85;;;5.40;99.90;;;;;;4987437;28;20113;-63
2024/01/31 07:02:32;;;;;;;5.35;1.65;;;5.40;99.90;;;;;;4993981;28;20038;-63
2024/01/31 07:04:58;;;;;;;7.13;1.90;;;5.40;99.90;;;;;;4996385;28;20678;-63
2024/01/31 07:07:24;;;;;;;5.63;2.30;;;5.40;99.90;;;;;;4995813;28;20120;-63
2024/01/31 07:09:49;;;;;;;5.28;2.35;;;5.40;99.90;;;;;;4983298;28;20471;-63
2024/01/31 07:12:15;;;;;;;4.50;2.38;;;5.40;99.90;;;;;;4995690;28;20042;-63
2024/01/31 07:14:41;;;;;;;5.60;2.15;;;5.40;99.90;;;;;;4995332;28;20451;-63
2024/01/31 07:17:07;;;;;;;10.43;2.15;;;5.40;99.90;;;;;;4996540;28;20503;-63
2024/01/31 07:19:32;;;;;;;4.28;2.30;;;5.40;99.90;;;;;;5002588;28;20073;-63
2024/01/31 07:21:58;;;;;;;7.60;2.00;;;5.40;99.90;;;;;;4993397;28;20038;-63
2024/01/31 07:24:24;;;;;;;6.72;2.20;;;5.40;99.90;;;;;;4996953;28;20483;-63
2024/01/31 07:26:49;;;;;;;5.40;2.22;;;5.40;99.90;;;;;;4991065;28;20042;-63
2024/01/31 07:29:15;;;;;;;7.07;2.10;;;5.40;99.90;;;;;;4992379;28;20525;-63
2024/01/31 07:31:40;;;;;;;6.82;2.00;;;5.50;99.90;;;;;;5000798;28;20041;-63
2024/01/31 07:34:06;;;;;;;4.47;2.08;;;5.50;99.90;;;;;;4999474;28;20030;-63
2024/01/31 07:36:32;;;;;;;6.38;2.25;;;5.40;99.90;;;;;;4999555;28;20100;-63
2024/01/31 07:38:57;;;;;;;5.30;2.15;;;5.50;99.90;;;;;;4998645;28;20038;-63
2024/01/31 07:41:23;;;;;;;5.78;2.20;;;5.50;99.90;;;;;;4993297;28;20042;-63
2024/01/31 07:43:48;;;;;;;5.28;2.20;;;5.50;99.90;;;;;;4997769;28;20042;-63
2024/01/31 07:46:14;;;;;;;8.77;2.35;;;5.50;99.90;;;;;;4997213;28;20067;-63
2024/01/31 07:48:40;;;;;;;8.13;2.92;;;5.40;99.90;;;;;;4987220;28;20034;-63
2024/01/31 07:51:05;;;;;;;6.13;2.97;;;5.50;99.90;;;;;;5002211;28;20392;-63
2024/01/31 07:53:35;;;;;;;8.55;3.30;;;5.50;99.90;;;;;;5002392;28;20395;-63
2024/01/31 07:56:03;;;;;;;6.68;3.55;;;5.50;99.90;;;;;;5000313;28;20044;-63
2024/01/31 07:58:30;;;;;;;7.20;3.20;;;5.40;99.90;;;;;;4985209;28;20047;-63
2024/01/31 08:00:55;;;;;;;10.98;3.95;;;5.50;99.90;;;;;;4998667;28;20034;-63
2024/01/31 08:03:21;;;;;;;8.13;3.92;;;5.50;99.90;;;;;;5008113;28;20040;-63
2024/01/31 08:05:46;;;;;;;10.43;3.97;;;5.40;99.90;;;;;;5003733;28;20552;-63
2024/01/31 08:08:12;;;;;;;8.63;4.30;;;5.50;99.90;;;;;;4998092;28;20034;-63
2024/01/31 08:10:38;;;;;;;9.77;4.65;;;5.50;99.90;;;;;;5004623;28;20395;-63
2024/01/31 08:13:04;;;;;;;7.93;4.30;;;5.50;99.90;;;;;;5006742;28;20454;-63
2024/01/31 08:15:31;;;;;;;9.02;4.80;;;5.50;99.90;;;;;;4996061;28;20096;-63
2024/01/31 08:17:57;;;;;;;8.73;4.43;;;5.50;99.90;;;;;;4997863;28;20047;-63
2024/01/31 08:20:23;;;;;;;7.65;4.63;;;5.50;99.90;;;;;;5002623;28;20525;-63
2024/01/31 08:22:48;;;;;;;11.02;4.78;;;5.50;99.90;;;;;;4997086;28;20045;-63
2024/01/31 08:25:14;;;;;;;9.98;4.65;;;5.50;99.90;;;;;;4987443;28;20042;-63
2024/01/31 08:27:39;;;;;;;8.27;4.80;;;5.50;99.90;;;;;;5005614;28;20120;-64
2024/01/31 08:30:06;;;;;;;8.45;4.47;;;5.50;99.90;;;;;;4999015;28;20045;-64
2024/01/31 08:32:35;;;;;;;10.27;4.70;;;5.50;99.90;;;;;;5004456;28;20140;-64
2024/01/31 08:35:05;;;;;;;11.48;4.93;;;5.50;99.90;;;;;;4996224;28;20585;-64
2024/01/31 08:37:30;;;;;;;11.32;5.88;;;5.50;99.90;;;;;;4998086;28;20038;-64
2024/01/31 08:39:56;;;;;;;8.80;4.78;;;5.50;99.90;;;;;;4990654;28;20474;-64
2024/01/31 08:42:23;;;;;;;8.73;4.20;;;5.60;99.90;;;;;;5007519;28;20038;-64
2024/01/31 08:44:48;;;;;;;8.32;4.53;;;5.60;99.90;;;;;;4996106;28;20139;-64
2024/01/31 08:47:14;;;;;;;10.15;4.43;;;5.60;99.90;;;;;;4997899;28;20073;-64
2024/01/31 08:49:39;;;;;;;9.23;3.88;;;5.60;99.90;;;;;;5003420;28;20069;-64
2024/01/31 08:52:05;;;;;;;7.63;4.10;;;5.60;99.90;;;;;;4992174;28;20466;-64
2024/01/31 08:54:31;;;;;;;11.82;4.72;;;5.60;99.90;;;;;;4992798;28;20034;-64
2024/01/31 08:56:56;;;;;;;14.25;4.20;;;5.60;99.90;;;;;;4999084;28;20042;-65
2024/01/31 08:59:22;;;;;;;8.02;3.92;;;5.70;99.90;;;;;;5003494;28;20038;-65
2024/01/31 09:01:48;;;;;;;7.25;4.00;;;5.70;99.90;;;;;;5001948;28;20050;-65
2024/01/31 09:04:14;;;;;;;6.95;4.20;;;5.70;99.90;;;;;;4999405;28;20117;-65
2024/01/31 09:06:42;;;;;;;7.80;3.80;;;5.70;99.90;;;;;;5004922;28;20040;-64
2024/01/31 09:09:08;;;;;;;9.13;3.50;;;5.70;99.90;;;;;;5002052;28;20041;-64
2024/01/31 09:11:34;;;;;;;7.05;3.60;;;5.70;99.90;;;;;;4997430;28;20465;-64
2024/01/31 09:14:00;;;;;;;7.43;3.65;;;5.80;99.90;;;;;;4998492;28;20105;-64
2024/01/31 09:16:25;;;;;;;5.30;3.30;;;5.80;99.90;;;;;;4997037;28;20038;-65
2024/01/31 09:18:51;;;;;;;7.40;3.90;;;5.80;99.90;;;;;;4980833;28;20387;-65
2024/01/31 09:21:27;;;;;;;8.30;4.00;;;5.80;99.90;;;;;;5002824;28;20034;-64
2024/01/31 09:23:56;;;;;;;8.27;4.13;;;5.90;99.90;;;;;;5004475;28;20037;-64
2024/01/31 09:26:22;;;;;;;11.23;4.40;;;5.90;99.90;;;;;;4991211;28;20073;-64
2024/01/31 09:28:48;;;;;;;8.70;4.28;;;5.90;99.90;;;;;;4991441;28;20125;-64
2024/01/31 09:31:21;;;;;;;7.85;4.03;;;5.90;99.90;;;;;;4997362;28;20572;-64
2024/01/31 09:33:48;;;;;;;7.60;4.38;;;5.90;99.90;;;;;;5003979;28;20041;-64
2024/01/31 09:36:14;;;;;;;6.88;4.20;;;5.90;99.90;;;;;;4992628;28;20038;-64
2024/01/31 09:38:40;;;;;;;9.18;4.38;;;6.00;99.90;;;;;;4990750;28;20094;-64
2024/01/31 09:41:05;;;;;;;8.95;4.85;;;6.00;99.90;;;;;;5000924;28;20073;-64
2024/01/31 09:43:32;;;;;;;7.20;4.32;;;6.00;99.90;;;;;;4997033;28;20399;-64
2024/01/31 09:46:03;;;;;;;6.53;3.88;;;6.00;99.90;;;;;;4995379;28;20042;-64
2024/01/31 09:48:30;;;;;;;10.43;4.63;;;6.00;99.90;;;;;;5001319;28;20039;-64
2024/01/31 09:50:56;;;;;;;9.82;3.92;;;6.00;99.90;;;;;;5000096;28;20038;-64
2024/01/31 09:53:22;;;;;;;6.25;4.22;;;6.10;99.90;;;;;;5006545;28;20045;-64
2024/01/31 09:55:55;;;;;;;6.95;4.30;;;6.10;99.90;;;;;;4994163;28;20783;-64
2024/01/31 09:58:23;;;;;;;9.77;4.43;;;6.00;99.90;;;;;;4993134;28;20038;-64
2024/01/31 10:00:51;;;;;;;7.50;4.07;;;6.10;99.90;;;;;;5002806;28;20026;-64
2024/01/31 10:03:16;;;;;;;8.10;4.07;;;6.10;99.90;;;;;;5005175;28;20092;-64
2024/01/31 10:05:43;;;;;;;8.93;4.38;;;6.10;99.90;;;;;;4991740;28;20042;-64
2024/01/31 10:08:10;;;;;;;5.13;3.70;;;6.20;99.90;;;;;;5001847;28;20436;-64
2024/01/31 10:10:37;;;;;;;6.10;3.83;;;6.20;99.90;;;;;;5000596;28;20042;-64
2024/01/31 10:13:03;;;;;;;5.68;3.75;;;6.20;99.90;;;;;;5004599;28;20491;-64
2024/01/31 10:15:29;;;;;;;7.95;4.18;;;6.20;99.90;;;;;;4994564;28;20526;-64
2024/01/31 10:17:55;;;;;;;6.63;4.40;;;6.20;99.90;;;;;;4994733;28;20030;-64
2024/01/31 10:20:21;;;;;;;8.65;4.32;;;6.20;99.90;;;;;;4990979;28;20487;-64
2024/01/31 10:22:47;;;;;;;7.85;4.80;;;6.20;99.90;;;;;;4987184;28;20101;-64
2024/01/31 10:25:16;;;;;;;5.35;3.75;;;6.30;99.90;;;;;;4998674;28;20109;-64
2024/01/31 10:27:47;;;;;;;5.95;4.10;;;6.30;99.90;;;;;;4997784;28;20053;-64
2024/01/31 10:30:14;;;;;;;7.05;4.50;;;6.30;99.90;;;;;;4991201;28;20077;-64
2024/01/31 10:32:43;;;;;;;8.88;4.63;;;6.40;99.90;;;;;;5002206;28;20038;-64
2024/01/31 10:35:10;;;;;;;6.93;4.18;;;6.40;99.90;;;;;;4994704;28;20522;-64
2024/01/31 10:37:36;;;;;;;8.77;4.70;;;6.40;99.90;;;;;;4997756;28;20130;-64
2024/01/31 10:40:05;;;;;;;6.50;4.55;;;6.40;99.90;;;;;;4992025;28;20062;-64
2024/01/31 10:42:31;;;;;;;7.43;4.50;;;6.40;99.90;;;;;;4990258;28;20038;-64
2024/01/31 10:44:58;;;;;;;9.00;4.60;;;6.40;99.90;;;;;;4994850;28;20034;-64
2024/01/31 10:47:23;;;;;;;8.05;4.95;;;6.50;99.90;;;;;;4993529;28;20034;-64
2024/01/31 10:49:49;;;;;;;10.70;4.90;;;6.50;99.90;;;;;;4994368;28;20121;-65
2024/01/31 10:52:26;;;;;;;10.55;5.22;;;6.50;99.90;;;;;;4995949;28;20057;-65
2024/01/31 10:54:58;;;;;;;8.50;5.75;;;6.50;99.90;;;;;;4986076;28;20060;-65
2024/01/31 10:57:26;;;;;;;7.13;5.10;;;6.50;99.90;;;;;;4994377;28;20037;-65
2024/01/31 10:59:53;;;;;;;8.52;5.30;;;6.50;99.90;;;;;;4988699;28;20085;-65
2024/01/31 11:02:18;;;;;;;7.78;5.03;;;6.50;99.90;;;;;;4993938;28;20057;-64
2024/01/31 11:04:45;;;;;;;10.65;5.80;;;6.60;99.90;;;;;;4996330;28;20070;-64
2024/01/31 11:07:19;;;;;;;10.48;6.22;;;6.50;99.90;;;;;;4981668;28;20037;-65
2024/01/31 11:09:46;;;;;;;9.20;5.88;;;6.60;99.90;;;;;;4997424;28;20080;-65
2024/01/31 11:12:14;;;;;;;10.60;6.78;;;6.50;99.90;;;;;;4999776;28;20037;-65
2024/01/31 11:14:45;;;;;;;10.18;7.10;;;6.50;99.90;;;;;;4996679;28;20510;-65
2024/01/31 11:17:23;;;;;;;11.15;7.53;;;6.50;99.90;;;;;;5001542;28;20746;-65
2024/01/31 11:19:52;;;;;;;10.02;6.88;;;6.50;99.90;;;;;;5001538;28;20034;-64
2024/01/31 11:22:18;;;;;;;10.38;7.00;;;6.50;99.90;;;;;;4994803;28;20057;-65
2024/01/31 11:24:49;;;;;;;12.27;7.40;;;6.50;99.90;;;;;;4996497;28;20038;-65
2024/01/31 11:27:15;;;;;;;11.90;7.90;;;6.50;99.90;;;;;;4994733;28;20045;-64
2024/01/31 11:29:43;;;;;;;11.05;7.68;;;6.60;99.90;;;;;;5003047;28;20074;-65
2024/01/31 11:32:09;;;;;;;9.82;7.30;;;6.50;99.90;;;;;;4999147;28;20035;-65
2024/01/31 11:34:36;;;;;;;8.63;6.43;;;6.50;99.90;;;;;;4992739;28;20042;-65
2024/01/31 11:37:02;;;;;;;11.55;6.63;;;6.50;99.90;;;;;;5000138;28;20041;-65
2024/01/31 11:39:27;;;;;;;9.48;6.85;;;6.60;99.90;;;;;;4995996;28;20046;-64
2024/01/31 11:41:54;;;;;;;7.18;6.32;;;6.60;99.90;;;;;;5001155;28;20044;-65
2024/01/31 11:44:20;;;;;;;8.77;6.82;;;6.60;99.90;;;;;;5005515;28;20033;-64
2024/01/31 11:46:46;;;;;;;10.90;6.05;;;6.60;99.90;;;;;;5001996;28;20041;-65
2024/01/31 11:49:12;;;;;;;6.90;5.55;;;6.70;99.90;;;;;;4994555;28;20041;-65
2024/01/31 11:51:38;;;;;;;8.50;5.72;;;6.70;99.90;;;;;;5000518;28;20042;-65
2024/01/31 11:54:04;;;;;;;8.15;5.53;;;6.80;99.90;;;;;;5003928;28;20121;-65
2024/01/31 11:56:30;;;;;;;7.88;5.53;;;6.80;99.90;;;;;;5004171;28;20113;-65
2024/01/31 11:58:57;;;;;;;8.10;5.72;;;6.80;99.90;;;;;;4998263;28;20034;-64
2024/01/31 12:01:24;;;;;;;7.95;5.82;;;6.90;99.90;;;;;;5001804;28;20453;-66
2024/01/31 12:03:50;;;;;;;10.55;5.93;;;6.90;99.90;;;;;;4999412;28;20049;-65
2024/01/31 12:06:19;;;;;;;9.20;6.43;;;7.00;99.90;;;;;;5001577;28;20529;-65
2024/01/31 12:08:49;;;;;;;7.75;6.20;;;7.00;99.90;;;;;;4989396;28;20047;-65
2024/01/31 12:11:15;;;;;;;8.30;6.10;;;7.00;99.90;;;;;;4983445;28;20046;-65
2024/01/31 12:13:41;;;;;;;7.78;6.28;;;7.00;99.90;;;;;;4998900;28;20121;-65
2024/01/31 12:16:10;;;;;;;8.15;6.32;;;7.00;99.90;;;;;;4999748;28;20191;-65
2024/01/31 12:18:37;;;;;;;11.07;6.88;;;7.10;99.90;;;;;;4992483;28;20074;-65
2024/01/31 12:21:09;;;;;;;10.23;6.55;;;7.10;99.90;;;;;;4981304;28;20100;-65
2024/01/31 12:23:35;;;;;;;9.02;6.70;;;7.20;99.90;;;;;;4990869;28;20117;-65
2024/01/31 12:26:02;;;;;;;10.20;7.20;;;7.10;99.90;;;;;;4990915;28;20134;-65
2024/01/31 12:28:28;;;;;;;9.77;7.50;;;7.20;99.90;;;;;;4993940;28;20424;-65
2024/01/31 12:30:53;;;;;;;12.05;7.05;;;7.20;99.90;;;;;;5000863;28;20073;-65
2024/01/31 12:33:20;;;;;;;10.15;7.13;;;7.20;99.90;;;;;;4990427;28;20026;-64
2024/01/31 12:35:46;;;;;;;10.35;6.97;;;7.10;99.90;;;;;;4992004;28;20049;-65
2024/01/31 12:38:12;;;;;;;10.65;8.20;;;7.20;99.90;;;;;;5005895;28;20117;-65
2024/01/31 12:40:39;;;;;;;12.07;7.63;;;7.20;99.90;;;;;;4998971;28;20465;-64
2024/01/31 12:43:05;;;;;;;11.57;7.68;;;7.20;99.90;;;;;;5007350;28;20045;-65
2024/01/31 12:45:33;;;;;;;9.93;8.35;;;7.20;99.90;;;;;;4999249;28;20109;-64
2024/01/31 12:47:59;;;;;;;9.27;7.40;;;7.20;99.90;;;;;;5001122;28;20384;-64
2024/01/31 12:50:25;;;;;;;11.07;7.30;;;7.20;99.90;;;;;;5008629;28;20034;-65